createdAt,value
2018-02-10T00:02:19.862Z,4.25
2018-02-10T00:04:47.400Z,4.38
2018-02-10T00:07:14.954Z,4.22
2018-02-10T00:09:42.489Z,4.31
2018-02-10T00:12:10.022Z,4.15
2018-02-10T00:14:37.650Z,4.44
2018-02-10T00:17:05.869Z,4.58
2018-02-10T00:19:33.524Z,4.48
2018-02-10T00:22:01.078Z,4.65
2018-02-10T00:24:28.599Z,4.71
2018-02-10T00:26:56.147Z,4.69
2018-02-10T00:29:23.739Z,4.60
2018-02-10T00:31:51.278Z,4.70
2018-02-10T00:34:19.198Z,4.56
2018-02-10T00:36:46.971Z,4.55
2018-02-10T00:39:14.514Z,4.55
2018-02-10T00:41:42.026Z,4.66
2018-02-10T00:44:09.570Z,4.55
2018-02-10T00:46:37.082Z,4.47
2018-02-10T00:49:04.602Z,4.48
2018-02-10T00:51:32.182Z,4.61
2018-02-10T00:53:59.709Z,4.71
2018-02-10T00:56:27.233Z,4.63
2018-02-10T00:58:54.817Z,4.73
2018-02-10T01:01:22.339Z,4.67
2018-02-10T01:03:49.857Z,4.48
2018-02-10T01:06:17.423Z,4.62
2018-02-10T01:08:44.945Z,4.53
2018-02-10T01:11:12.468Z,4.58
2018-02-10T01:13:40.026Z,4.67
2018-02-10T01:16:07.558Z,4.66
2018-02-10T01:18:35.084Z,4.65
2018-02-10T01:21:03.517Z,4.49
2018-02-10T01:23:31.041Z,4.46
2018-02-10T01:25:58.573Z,4.39
2018-02-10T01:28:26.130Z,4.64
2018-02-10T01:30:53.654Z,4.68
2018-02-10T01:33:21.169Z,4.79
2018-02-10T01:35:48.729Z,4.76
2018-02-10T01:38:16.262Z,4.78
2018-02-10T01:40:43.800Z,4.86
2018-02-10T01:43:11.347Z,4.76
2018-02-10T01:45:38.861Z,4.83
2018-02-10T01:48:06.388Z,4.83
2018-02-10T01:50:33.937Z,4.82
2018-02-10T01:53:01.491Z,4.87
2018-02-10T01:55:29.022Z,4.79
2018-02-10T01:57:56.565Z,4.93
2018-02-10T02:00:24.093Z,4.85
2018-02-10T02:02:51.610Z,4.84
2018-02-10T02:05:19.158Z,4.64
2018-02-10T02:07:46.720Z,4.72
2018-02-10T02:10:14.232Z,4.83
2018-02-10T02:12:41.777Z,4.89
2018-02-10T02:15:09.293Z,4.94
2018-02-10T02:17:36.831Z,4.95
2018-02-10T02:20:04.385Z,4.97
2018-02-10T02:22:31.901Z,4.85
2018-02-10T02:24:59.420Z,4.96
2018-02-10T02:27:26.971Z,4.95
2018-02-10T02:29:54.492Z,5.02
2018-02-10T02:32:22.030Z,5.06
2018-02-10T02:34:49.566Z,5.06
2018-02-10T02:37:17.086Z,5.06
2018-02-10T02:39:44.642Z,4.84
2018-02-10T02:42:12.165Z,4.92
2018-02-10T02:44:39.689Z,5.01
2018-02-10T02:47:07.285Z,5.08
2018-02-10T02:49:34.801Z,5.13
2018-02-10T02:52:02.352Z,5.12
2018-02-10T02:54:29.909Z,4.97
2018-02-10T02:56:57.425Z,5.11
2018-02-10T02:59:24.978Z,5.06
2018-02-10T03:01:52.500Z,4.90
2018-02-10T03:04:20.039Z,5.04
2018-02-10T03:06:47.594Z,5.09
2018-02-10T03:09:15.118Z,5.04
2018-02-10T03:11:42.686Z,4.99
2018-02-10T03:14:10.197Z,5.01
2018-02-10T03:16:37.788Z,5.01
2018-02-10T03:19:05.347Z,4.96
2018-02-10T03:21:32.869Z,4.80
2018-02-10T03:24:00.414Z,4.83
2018-02-10T03:26:27.962Z,4.94
2018-02-10T03:28:55.517Z,4.88
2018-02-10T03:31:23.069Z,4.96
2018-02-10T03:33:50.580Z,4.88
2018-02-10T03:36:18.133Z,4.96
2018-02-10T03:38:45.731Z,4.94
2018-02-10T03:41:13.269Z,4.81
2018-02-10T03:43:40.842Z,4.83
2018-02-10T03:46:08.362Z,4.89
2018-02-10T03:48:35.922Z,4.93
2018-02-10T03:51:03.435Z,4.87
2018-02-10T03:53:30.978Z,4.91
2018-02-10T03:55:58.521Z,4.80
2018-02-10T03:58:26.033Z,4.79
2018-02-10T04:00:53.577Z,4.82
2018-02-10T04:03:21.100Z,4.73
2018-02-10T04:05:48.648Z,4.83
2018-02-10T04:08:16.203Z,4.86
2018-02-10T04:10:43.732Z,4.87
2018-02-10T04:13:11.285Z,4.86
2018-02-10T04:15:38.800Z,4.89
2018-02-10T04:18:06.389Z,4.80
2018-02-10T04:20:33.935Z,4.85
2018-02-10T04:23:01.453Z,4.91
2018-02-10T04:25:29.006Z,4.84
2018-02-10T04:27:56.530Z,4.87
2018-02-10T04:30:24.236Z,4.84
2018-02-10T04:32:51.747Z,4.86
2018-02-10T04:35:19.285Z,4.71
2018-02-10T04:37:46.830Z,4.72
2018-02-10T04:40:14.346Z,4.72
2018-02-10T04:42:41.924Z,4.77
2018-02-10T04:45:09.462Z,4.85
2018-02-10T04:47:36.981Z,4.80
2018-02-10T04:50:04.517Z,4.84
2018-02-10T04:52:32.038Z,4.81
2018-02-10T04:54:59.601Z,4.72
2018-02-10T04:57:27.145Z,4.75
2018-02-10T04:59:54.670Z,4.82
2018-02-10T05:02:22.225Z,4.72
2018-02-10T05:04:49.794Z,4.75
2018-02-10T05:07:17.358Z,4.79
2018-02-10T05:09:44.890Z,4.83
2018-02-10T05:12:12.413Z,4.82
2018-02-10T05:14:39.964Z,4.73
2018-02-10T05:17:07.481Z,4.58
2018-02-10T05:19:35.214Z,4.76
2018-02-10T05:22:02.733Z,4.81
2018-02-10T05:24:30.253Z,4.79
2018-02-10T05:26:57.800Z,4.70
2018-02-10T05:29:25.317Z,4.91
2018-02-10T05:31:53.110Z,4.87
2018-02-10T05:34:20.630Z,4.93
2018-02-10T05:36:48.197Z,4.75
2018-02-10T05:39:15.745Z,4.87
2018-02-10T05:41:43.269Z,4.74
2018-02-10T05:44:11.699Z,4.82
2018-02-10T05:46:39.219Z,4.83
2018-02-10T05:49:06.740Z,4.76
2018-02-10T05:51:34.297Z,4.78
2018-02-10T05:54:01.809Z,4.82
2018-02-10T05:56:29.537Z,4.76
2018-02-10T05:58:57.069Z,4.73
2018-02-10T06:01:24.989Z,4.64
2018-02-10T06:03:52.530Z,4.52
2018-02-10T06:06:20.037Z,4.50
2018-02-10T06:08:47.598Z,4.62
2018-02-10T06:11:15.122Z,4.32
2018-02-10T06:13:42.633Z,4.45
2018-02-10T06:16:10.181Z,4.24
2018-02-10T06:18:37.699Z,4.33
2018-02-10T06:21:05.463Z,4.47
2018-02-10T06:23:32.981Z,4.51
2018-02-10T06:26:00.498Z,4.62
2018-02-10T06:28:28.055Z,4.65
2018-02-10T06:30:55.581Z,4.63
2018-02-10T06:33:23.325Z,4.70
2018-02-10T06:35:50.851Z,4.68
2018-02-10T06:38:18.362Z,4.62
2018-02-10T06:40:45.907Z,4.33
2018-02-10T06:43:13.420Z,4.56
2018-02-10T06:45:40.977Z,4.59
2018-02-10T06:48:08.502Z,4.67
2018-02-10T06:50:36.158Z,4.68
2018-02-10T06:53:03.711Z,4.77
2018-02-10T06:55:31.226Z,4.82
2018-02-10T06:57:59.021Z,4.70
2018-02-10T07:00:26.537Z,4.77
2018-02-10T07:02:54.053Z,4.90
2018-02-10T07:05:21.597Z,4.95
2018-02-10T07:07:49.113Z,5.04
2018-02-10T07:10:16.817Z,5.08
2018-02-10T07:12:44.346Z,5.11
2018-02-10T07:15:12.324Z,5.06
2018-02-10T07:17:39.874Z,5.17
2018-02-10T07:20:08.189Z,5.18
2018-02-10T07:22:36.153Z,5.15
2018-02-10T07:25:03.698Z,5.20
2018-02-10T07:27:31.216Z,5.30
2018-02-10T07:29:58.757Z,5.21
2018-02-10T07:32:26.270Z,5.28
2018-02-10T07:34:54.153Z,5.26
2018-02-10T07:37:21.670Z,5.15
2018-02-10T07:39:49.189Z,5.33
2018-02-10T07:42:16.729Z,5.32
2018-02-10T07:44:44.246Z,5.40
2018-02-10T07:47:12.153Z,5.38
2018-02-10T07:49:39.686Z,5.34
2018-02-10T07:52:07.249Z,5.37
2018-02-10T07:54:34.799Z,5.42
2018-02-10T07:57:02.314Z,5.29
2018-02-10T07:59:29.878Z,5.42
2018-02-10T08:01:57.392Z,5.43
2018-02-10T08:04:24.962Z,5.52
2018-02-10T08:06:52.580Z,5.63
2018-02-10T08:09:20.198Z,5.63
2018-02-10T08:11:47.941Z,5.54
2018-02-10T08:14:15.632Z,5.48
2018-02-10T08:16:43.230Z,5.47
2018-02-10T08:19:10.913Z,5.54
2018-02-10T08:21:38.600Z,5.38
2018-02-10T08:24:06.187Z,5.43
2018-02-10T08:26:33.743Z,5.55
2018-02-10T08:29:01.256Z,5.63
2018-02-10T08:31:28.833Z,5.59
2018-02-10T08:33:56.595Z,5.46
2018-02-10T08:36:24.427Z,5.62
2018-02-10T08:38:51.946Z,5.76
2018-02-10T08:41:19.513Z,5.73
2018-02-10T08:43:47.150Z,5.88
2018-02-10T08:46:14.718Z,5.91
2018-02-10T08:48:43.199Z,5.97
2018-02-10T08:51:11.270Z,5.97
2018-02-10T08:53:38.925Z,5.95
2018-02-10T08:56:06.608Z,6.06
2018-02-10T08:58:34.664Z,6.13
2018-02-10T09:01:02.340Z,6.16
2018-02-10T09:03:30.192Z,6.12
2018-02-10T09:05:57.800Z,5.97
2018-02-10T09:08:25.619Z,6.24
2018-02-10T09:10:53.279Z,6.37
2018-02-10T09:13:21.102Z,6.36
2018-02-10T09:15:48.737Z,6.45
2018-02-10T09:18:16.367Z,6.29
2018-02-10T09:20:44.245Z,6.57
2018-02-10T09:23:12.614Z,6.80
2018-02-10T09:25:40.695Z,6.76
2018-02-10T09:28:08.521Z,6.87
2018-02-10T09:30:36.419Z,6.83
2018-02-10T09:33:04.258Z,6.86
2018-02-10T09:35:32.150Z,6.95
2018-02-10T09:38:00.258Z,7.20
2018-02-10T09:40:28.087Z,7.29
2018-02-10T09:42:55.765Z,7.39
2018-02-10T09:45:23.717Z,7.34
2018-02-10T09:47:51.584Z,7.77
2018-02-10T09:50:19.961Z,7.66
2018-02-10T09:52:48.032Z,7.93
2018-02-10T09:55:15.798Z,7.92
2018-02-10T09:57:43.664Z,7.86
2018-02-10T10:00:12.056Z,8.04
2018-02-10T10:02:40.422Z,7.85
2018-02-10T10:05:08.148Z,8.03
2018-02-10T10:07:36.050Z,7.88
2018-02-10T10:10:04.019Z,7.96
2018-02-10T10:12:31.783Z,7.90
2018-02-10T10:14:59.716Z,7.99
2018-02-10T10:17:27.482Z,8.17
2018-02-10T10:19:55.691Z,8.11
2018-02-10T10:22:23.658Z,8.16
2018-02-10T10:24:51.525Z,7.83
2018-02-10T10:27:19.672Z,8.07
2018-02-10T10:29:47.564Z,8.34
2018-02-10T10:32:15.431Z,7.92
2018-02-10T10:34:43.174Z,7.95
2018-02-10T10:37:11.018Z,7.75
2018-02-10T10:39:38.928Z,7.92
2018-02-10T10:42:06.698Z,7.52
2018-02-10T10:44:34.516Z,7.43
2018-02-10T10:47:02.387Z,7.40
2018-02-10T10:49:30.291Z,7.04
2018-02-10T10:51:58.312Z,7.30
2018-02-10T10:54:26.013Z,7.46
2018-02-10T10:56:53.845Z,7.54
2018-02-10T10:59:21.509Z,7.63
2018-02-10T11:01:49.214Z,7.71
2018-02-10T11:04:17.250Z,7.60
2018-02-10T11:06:45.118Z,7.56
2018-02-10T11:09:12.983Z,7.74
2018-02-10T11:11:40.825Z,7.75
2018-02-10T11:14:08.647Z,7.80
2018-02-10T11:16:36.985Z,7.80
2018-02-10T11:19:04.897Z,7.87
2018-02-10T11:21:33.067Z,8.08
2018-02-10T11:24:00.982Z,8.37
2018-02-10T11:26:29.008Z,8.52
2018-02-10T11:28:57.186Z,8.36
2018-02-10T11:31:25.150Z,8.41
2018-02-10T11:33:53.032Z,8.15
2018-02-10T11:36:20.783Z,8.19
2018-02-10T11:38:48.644Z,7.99
2018-02-10T11:41:16.617Z,8.03
2018-02-10T11:43:44.467Z,8.03
2018-02-10T11:46:12.457Z,7.94
2018-02-10T11:48:40.314Z,7.88
2018-02-10T11:51:08.796Z,7.70
2018-02-10T11:53:37.072Z,7.69
2018-02-10T11:56:04.836Z,7.73
2018-02-10T11:58:32.702Z,7.78
2018-02-10T12:01:00.630Z,7.84
2018-02-10T12:03:28.344Z,8.11
2018-02-10T12:05:56.301Z,7.93
2018-02-10T12:08:24.135Z,8.14
2018-02-10T12:10:52.034Z,7.86
2018-02-10T12:13:19.969Z,8.03
2018-02-10T12:15:47.957Z,8.05
2018-02-10T12:18:16.103Z,8.05
2018-02-10T12:20:44.114Z,8.09
2018-02-10T12:23:11.880Z,8.02
2018-02-10T12:25:39.907Z,7.95
2018-02-10T12:28:07.815Z,7.72
2018-02-10T12:30:36.064Z,7.58
2018-02-10T12:33:03.957Z,7.41
2018-02-10T12:35:31.824Z,7.70
2018-02-10T12:37:59.792Z,7.62
2018-02-10T12:40:28.171Z,7.70
2018-02-10T12:42:56.242Z,8.02
2018-02-10T12:45:24.086Z,7.96
2018-02-10T12:47:57.830Z,7.93
2018-02-10T12:50:26.095Z,8.13
2018-02-10T12:52:53.954Z,8.23
2018-02-10T12:55:22.601Z,8.20
2018-02-10T12:57:51.517Z,8.09
2018-02-10T13:00:19.704Z,8.13
2018-02-10T13:02:47.650Z,8.05
2018-02-10T13:05:16.256Z,7.97
2018-02-10T13:07:44.185Z,7.98
2018-02-10T13:10:12.501Z,7.89
2018-02-10T13:12:40.471Z,7.85
2018-02-10T13:15:08.541Z,7.89
2018-02-10T13:17:36.408Z,7.89
2018-02-10T13:20:04.787Z,7.85
2018-02-10T13:22:32.609Z,7.86
2018-02-10T13:25:01.134Z,7.81
2018-02-10T13:27:29.000Z,7.78
2018-02-10T13:29:56.881Z,7.67
2018-02-10T13:32:24.874Z,7.69
2018-02-10T13:34:53.067Z,7.48
2018-02-10T13:37:20.934Z,7.19
2018-02-10T13:39:50.083Z,7.33
2018-02-10T13:42:19.142Z,7.31
2018-02-10T13:44:47.035Z,7.15
2018-02-10T13:47:14.901Z,7.12
2018-02-10T13:49:44.270Z,7.09
2018-02-10T13:52:13.711Z,7.18
2018-02-10T13:54:41.852Z,7.00
2018-02-10T13:57:09.718Z,6.99
2018-02-10T13:59:37.613Z,6.85
2018-02-10T14:02:05.581Z,6.84
2018-02-10T14:04:34.742Z,6.70
2018-02-10T14:07:02.747Z,6.82
2018-02-10T14:09:30.615Z,6.66
2018-02-10T14:11:58.480Z,6.43
2018-02-10T14:14:28.190Z,6.40
2018-02-10T14:16:57.489Z,6.41
2018-02-10T14:19:25.458Z,6.45
2018-02-10T14:21:53.735Z,6.48
2018-02-10T14:24:21.705Z,6.20
2018-02-10T14:26:49.673Z,6.58
2018-02-10T14:29:17.539Z,6.64
2018-02-10T14:31:45.776Z,6.69
2018-02-10T14:34:13.680Z,6.70
2018-02-10T14:36:41.453Z,6.82
2018-02-10T14:39:10.205Z,6.64
2018-02-10T14:41:38.100Z,6.82
2018-02-10T14:44:06.181Z,6.72
2018-02-10T14:46:34.856Z,6.62
2018-02-10T14:49:02.723Z,6.73
2018-02-10T14:51:30.589Z,6.68
2018-02-10T14:53:58.660Z,6.65
2018-02-10T14:56:26.592Z,6.58
2018-02-10T14:58:54.904Z,6.68
2018-02-10T15:01:22.874Z,6.62
2018-02-10T15:03:50.817Z,6.44
2018-02-10T15:06:18.684Z,6.61
2018-02-10T15:08:46.851Z,6.57
2018-02-10T15:11:14.750Z,6.69
2018-02-10T15:13:43.332Z,6.54
2018-02-10T15:16:11.311Z,6.56
2018-02-10T15:18:40.091Z,6.43
2018-02-10T15:21:08.133Z,6.51
2018-02-10T15:23:37.107Z,6.46
2018-02-10T15:26:05.020Z,6.54
2018-02-10T15:28:33.284Z,6.53
2018-02-10T15:31:13.962Z,6.09
2018-02-10T15:33:53.911Z,6.26
2018-02-10T15:36:22.905Z,6.14
2018-02-10T15:38:50.874Z,6.25
2018-02-10T15:41:18.716Z,6.42
2018-02-10T15:43:46.606Z,6.49
2018-02-10T15:46:14.574Z,6.06
2018-02-10T15:48:43.465Z,6.32
2018-02-10T15:51:11.438Z,6.26
2018-02-10T15:53:39.813Z,6.38
2018-02-10T15:56:08.814Z,6.25
2018-02-10T15:58:36.673Z,6.30
2018-02-10T16:01:05.460Z,6.00
2018-02-10T16:03:33.390Z,6.01
2018-02-10T16:06:02.020Z,5.73
2018-02-10T16:08:29.980Z,5.87
2018-02-10T16:10:58.768Z,5.81
2018-02-10T16:13:26.634Z,5.78
2018-02-10T16:15:54.697Z,5.58
2018-02-10T16:18:22.674Z,5.54
2018-02-10T16:20:50.751Z,5.68
2018-02-10T16:23:18.612Z,5.89
2018-02-10T16:25:46.479Z,5.82
2018-02-10T16:28:14.446Z,5.63
2018-02-10T16:30:42.216Z,5.57
2018-02-10T16:33:11.413Z,5.77
2018-02-10T16:35:39.276Z,5.68
2018-02-10T16:38:07.449Z,5.77
2018-02-10T16:40:36.442Z,5.66
2018-02-10T16:43:04.309Z,5.72
2018-02-10T16:45:33.506Z,5.65
2018-02-10T16:48:01.441Z,5.78
2018-02-10T16:50:29.342Z,5.52
2018-02-10T16:52:57.922Z,5.69
2018-02-10T16:55:25.684Z,5.57
2018-02-10T16:57:53.559Z,5.67
2018-02-10T17:00:21.421Z,5.71
2018-02-10T17:02:49.390Z,5.80
2018-02-10T17:05:17.157Z,5.82
2018-02-10T17:07:45.800Z,5.75
2018-02-10T17:10:13.766Z,5.76
2018-02-10T17:12:41.675Z,5.62
2018-02-10T17:15:10.042Z,5.80
2018-02-10T17:17:38.129Z,5.53
2018-02-10T17:20:06.814Z,5.62
2018-02-10T17:22:34.984Z,5.66
2018-02-10T17:25:02.851Z,5.65
2018-02-10T17:27:31.638Z,5.62
2018-02-10T17:29:59.402Z,5.58
2018-02-10T17:32:27.268Z,5.63
2018-02-10T17:34:55.340Z,5.71
2018-02-10T17:37:23.005Z,5.71
2018-02-10T17:39:51.890Z,5.77
2018-02-10T17:42:19.540Z,5.68
2018-02-10T17:44:47.397Z,5.73
2018-02-10T17:47:15.389Z,5.75
2018-02-10T17:49:43.255Z,5.80
2018-02-10T17:52:11.015Z,5.79
2018-02-10T17:54:39.297Z,5.71
2018-02-10T17:57:07.105Z,5.68
2018-02-10T17:59:35.130Z,5.54
2018-02-10T18:02:03.071Z,5.50
2018-02-10T18:04:31.075Z,5.50
2018-02-10T18:06:59.549Z,5.71
2018-02-10T18:09:27.414Z,5.64
2018-02-10T18:11:55.555Z,5.79
2018-02-10T18:14:23.251Z,5.79
2018-02-10T18:16:51.114Z,5.77
2018-02-10T18:19:19.000Z,5.71
2018-02-10T18:21:46.606Z,5.67
2018-02-10T18:24:14.175Z,5.60
2018-02-10T18:26:41.712Z,5.65
2018-02-10T18:29:09.324Z,5.62
2018-02-10T18:31:37.093Z,5.68
2018-02-10T18:34:04.965Z,5.63
2018-02-10T18:36:33.535Z,5.35
2018-02-10T18:39:01.508Z,5.05
2018-02-10T18:41:29.261Z,5.16
2018-02-10T18:43:57.239Z,5.33
2018-02-10T18:46:24.950Z,5.31
2018-02-10T18:48:53.404Z,5.48
2018-02-10T18:51:21.449Z,5.37
2018-02-10T18:53:50.242Z,5.47
2018-02-10T18:56:18.721Z,5.41
2018-02-10T18:58:47.305Z,5.51
2018-02-10T19:01:15.274Z,5.25
2018-02-10T19:03:43.859Z,5.20
2018-02-10T19:06:11.863Z,5.43
2018-02-10T19:08:39.811Z,5.21
2018-02-10T19:11:07.617Z,5.35
2018-02-10T19:13:35.732Z,5.24
2018-02-10T19:16:04.512Z,5.20
2018-02-10T19:18:32.388Z,5.23
2018-02-10T19:21:00.356Z,5.30
2018-02-10T19:23:28.287Z,5.23
2018-02-10T19:25:56.502Z,5.19
2018-02-10T19:28:24.371Z,5.30
2018-02-10T19:30:52.749Z,5.36
2018-02-10T19:33:20.711Z,5.00
2018-02-10T19:35:48.582Z,5.08
2018-02-10T19:38:16.711Z,4.97
2018-02-10T19:40:44.619Z,5.08
2018-02-10T19:43:12.484Z,5.14
2018-02-10T19:45:40.661Z,5.21
2018-02-10T19:48:09.038Z,5.09
2018-02-10T19:50:37.124Z,5.03
2018-02-10T19:53:05.036Z,4.78
2018-02-10T19:55:32.943Z,4.96
2018-02-10T19:58:00.806Z,4.99
2018-02-10T20:00:29.108Z,5.01
2018-02-10T20:02:56.850Z,4.79
2018-02-10T20:05:24.809Z,5.08
2018-02-10T20:07:52.685Z,5.10
2018-02-10T20:10:20.554Z,4.97
2018-02-10T20:12:50.884Z,5.01
2018-02-10T20:15:19.564Z,5.07
2018-02-10T20:17:47.326Z,4.83
2018-02-10T20:20:15.601Z,5.02
2018-02-10T20:22:43.435Z,4.97
2018-02-10T20:25:11.335Z,4.67
2018-02-10T20:27:39.304Z,4.72
2018-02-10T20:30:10.756Z,4.67
2018-02-10T20:32:38.827Z,4.81
2018-02-10T20:35:06.586Z,4.76
2018-02-10T20:37:34.458Z,4.82
2018-02-10T20:40:02.343Z,4.71
2018-02-10T20:42:30.393Z,4.82
2018-02-10T20:44:58.259Z,4.75
2018-02-10T20:47:26.287Z,4.78
2018-02-10T20:49:54.570Z,4.83
2018-02-10T20:52:22.268Z,4.97
2018-02-10T20:54:50.545Z,4.62
2018-02-10T20:57:18.320Z,4.89
2018-02-10T20:59:46.176Z,4.73
2018-02-10T21:02:14.864Z,5.06
2018-02-10T21:04:42.781Z,4.63
2018-02-10T21:07:10.784Z,4.62
2018-02-10T21:09:38.626Z,4.82
2018-02-10T21:12:06.634Z,4.62
2018-02-10T21:14:34.605Z,4.74
2018-02-10T21:17:02.747Z,4.40
2018-02-10T21:19:31.059Z,4.61
2018-02-10T21:21:58.816Z,4.81
2018-02-10T21:24:26.682Z,5.11
2018-02-10T21:26:54.652Z,4.68
2018-02-10T21:29:22.929Z,4.51
2018-02-10T21:31:50.747Z,4.38
2018-02-10T21:34:18.514Z,4.60
2018-02-10T21:36:46.425Z,4.46
2018-02-10T21:39:15.372Z,4.31
2018-02-10T21:41:43.800Z,4.43
2018-02-10T21:44:11.731Z,4.48
2018-02-10T21:46:39.971Z,4.58
2018-02-10T21:49:08.113Z,4.71
2018-02-10T21:51:35.979Z,4.56
2018-02-10T21:54:07.327Z,4.61
2018-02-10T21:56:36.070Z,4.70
2018-02-10T21:59:03.983Z,4.67
2018-02-10T22:01:31.951Z,4.85
2018-02-10T22:03:59.926Z,4.95
2018-02-10T22:06:27.690Z,5.00
2018-02-10T22:08:56.180Z,4.96
2018-02-10T22:11:24.034Z,4.86
2018-02-10T22:13:51.897Z,4.95
2018-02-10T22:16:20.892Z,4.97
2018-02-10T22:18:48.655Z,4.62
2018-02-10T22:21:17.853Z,4.93
2018-02-10T22:23:45.495Z,4.86
2018-02-10T22:26:13.260Z,4.72
2018-02-10T22:28:41.247Z,4.70
2018-02-10T22:31:08.993Z,4.66
2018-02-10T22:33:37.135Z,4.63
2018-02-10T22:36:06.195Z,4.24
2018-02-10T22:38:34.146Z,4.56
2018-02-10T22:41:02.013Z,4.34
2018-02-10T22:43:29.879Z,4.52
2018-02-10T22:45:58.054Z,4.64
2018-02-10T22:48:26.023Z,4.57
2018-02-10T22:50:53.792Z,4.72
2018-02-10T22:53:21.960Z,4.70
2018-02-10T22:55:49.544Z,4.59
2018-02-10T22:58:17.283Z,4.63
2018-02-10T23:00:45.006Z,4.81
2018-02-10T23:03:12.606Z,4.71
2018-02-10T23:05:40.245Z,4.67
2018-02-10T23:08:07.945Z,4.35
2018-02-10T23:10:36.001Z,4.69
2018-02-10T23:13:05.004Z,4.64
2018-02-10T23:15:32.860Z,4.64
2018-02-10T23:18:00.828Z,4.33
2018-02-10T23:20:28.469Z,4.62
2018-02-10T23:22:56.459Z,4.52
2018-02-10T23:25:24.224Z,4.47
2018-02-10T23:27:51.886Z,4.62
2018-02-10T23:30:19.437Z,4.68
2018-02-10T23:32:47.356Z,4.54
2018-02-10T23:35:16.406Z,4.42
2018-02-10T23:37:44.279Z,4.55
2018-02-10T23:40:12.242Z,4.85
2018-02-10T23:42:40.097Z,4.85
2018-02-10T23:45:07.876Z,4.68
2018-02-10T23:47:36.156Z,4.36
2018-02-10T23:50:04.014Z,4.47
2018-02-10T23:52:31.880Z,4.22
2018-02-10T23:54:59.746Z,4.56
2018-02-10T23:57:27.515Z,4.90
2018-02-10T23:59:55.556Z,4.87
